sensor_id;sensor_type;location;lat;lon;timestamp;pressure;altitude;pressure_sealevel;temperature;humidity
62948;BME280;51940;52.126;-0.994;2023-01-20T00:02:00;100220.62;;;-0.19;100.00
62948;BME280;51940;52.126;-0.994;2023-01-20T00:04:26;100220.56;;;-0.22;100.00
62948;BME280;51940;52.126;-0.994;2023-01-20T00:06:51;100223.14;;;-0.25;100.00
62948;BME280;51940;52.126;-0.994;2023-01-20T00:09:17;100224.30;;;-0.28;100.00
62948;BME280;51940;52.126;-0.994;2023-01-20T00:11:43;100221.98;;;-0.32;100.00
62948;BME280;51940;52.126;-0.994;2023-01-20T00:14:09;100222.79;;;-0.35;100.00
62948;BME280;51940;52.126;-0.994;2023-01-20T00:16:35;100230.45;;;-0.38;100.00
62948;BME280;51940;52.126;-0.994;2023-01-20T00:19:01;100227.80;;;-0.40;100.00
62948;BME280;51940;52.126;-0.994;2023-01-20T00:21:26;100226.39;;;-0.40;100.00
62948;BME280;51940;52.126;-0.994;2023-01-20T00:23:52;100233.40;;;-0.40;100.00
62948;BME280;51940;52.126;-0.994;2023-01-20T00:26:19;100233.95;;;-0.38;100.00
62948;BME280;51940;52.126;-0.994;2023-01-20T00:28:46;100229.06;;;-0.37;100.00
62948;BME280;51940;52.126;-0.994;2023-01-20T00:31:20;100231.16;;;-0.37;100.00
62948;BME280;51940;52.126;-0.994;2023-01-20T00:33:47;100226.95;;;-0.37;100.00
62948;BME280;51940;52.126;-0.994;2023-01-20T00:36:15;100233.08;;;-0.38;100.00
62948;BME280;51940;52.126;-0.994;2023-01-20T00:38:41;100240.13;;;-0.36;100.00
62948;BME280;51940;52.126;-0.994;2023-01-20T00:41:07;100242.09;;;-0.34;100.00
62948;BME280;51940;52.126;-0.994;2023-01-20T00:43:33;100245.07;;;-0.34;100.00
62948;BME280;51940;52.126;-0.994;2023-01-20T00:45:58;100250.84;;;-0.35;100.00
62948;BME280;51940;52.126;-0.994;2023-01-20T00:48:24;100251.69;;;-0.35;100.00
62948;BME280;51940;52.126;-0.994;2023-01-20T00:50:49;100256.06;;;-0.35;100.00
62948;BME280;51940;52.126;-0.994;2023-01-20T00:53:15;100255.34;;;-0.37;100.00
62948;BME280;51940;52.126;-0.994;2023-01-20T00:55:40;100258.98;;;-0.39;100.00
62948;BME280;51940;52.126;-0.994;2023-01-20T00:58:06;100264.05;;;-0.41;100.00
62948;BME280;51940;52.126;-0.994;2023-01-20T01:00:31;100260.69;;;-0.42;100.00
62948;BME280;51940;52.126;-0.994;2023-01-20T01:02:56;100263.62;;;-0.44;100.00
62948;BME280;51940;52.126;-0.994;2023-01-20T01:05:22;100266.77;;;-0.44;100.00
62948;BME280;51940;52.126;-0.994;2023-01-20T01:07:47;100272.44;;;-0.42;100.00
62948;BME280;51940;52.126;-0.994;2023-01-20T01:10:13;100274.38;;;-0.41;100.00
62948;BME280;51940;52.126;-0.994;2023-01-20T01:12:38;100280.36;;;-0.39;100.00
62948;BME280;51940;52.126;-0.994;2023-01-20T01:15:04;100283.20;;;-0.37;100.00
62948;BME280;51940;52.126;-0.994;2023-01-20T01:17:29;100283.73;;;-0.36;100.00
62948;BME280;51940;52.126;-0.994;2023-01-20T01:19:55;100286.35;;;-0.37;100.00
62948;BME280;51940;52.126;-0.994;2023-01-20T01:22:20;100290.38;;;-0.38;100.00
62948;BME280;51940;52.126;-0.994;2023-01-20T01:24:46;100291.77;;;-0.38;100.00
62948;BME280;51940;52.126;-0.994;2023-01-20T01:27:11;100291.74;;;-0.39;100.00
62948;BME280;51940;52.126;-0.994;2023-01-20T01:29:37;100298.56;;;-0.40;100.00
62948;BME280;51940;52.126;-0.994;2023-01-20T01:32:03;100297.30;;;-0.42;100.00
62948;BME280;51940;52.126;-0.994;2023-01-20T01:34:29;100299.52;;;-0.44;100.00
62948;BME280;51940;52.126;-0.994;2023-01-20T01:36:55;100297.73;;;-0.47;100.00
62948;BME280;51940;52.126;-0.994;2023-01-20T01:39:21;100304.69;;;-0.50;100.00
62948;BME280;51940;52.126;-0.994;2023-01-20T01:41:46;100303.04;;;-0.53;100.00
62948;BME280;51940;52.126;-0.994;2023-01-20T01:44:13;100300.56;;;-0.55;100.00
62948;BME280;51940;52.126;-0.994;2023-01-20T01:46:40;100305.98;;;-0.56;100.00
62948;BME280;51940;52.126;-0.994;2023-01-20T01:49:10;100309.66;;;-0.55;100.00
62948;BME280;51940;52.126;-0.994;2023-01-20T01:51:49;100312.98;;;-0.55;100.00
62948;BME280;51940;52.126;-0.994;2023-01-20T01:54:20;100317.38;;;-0.55;100.00
62948;BME280;51940;52.126;-0.994;2023-01-20T01:56:47;100320.88;;;-0.54;100.00
62948;BME280;51940;52.126;-0.994;2023-01-20T01:59:14;100327.20;;;-0.54;100.00
62948;BME280;51940;52.126;-0.994;2023-01-20T02:01:43;100332.70;;;-0.51;100.00
62948;BME280;51940;52.126;-0.994;2023-01-20T02:04:13;100334.16;;;-0.48;100.00
62948;BME280;51940;52.126;-0.994;2023-01-20T02:06:41;100335.83;;;-0.43;100.00
62948;BME280;51940;52.126;-0.994;2023-01-20T02:09:08;100339.06;;;-0.39;100.00
62948;BME280;51940;52.126;-0.994;2023-01-20T02:11:39;100341.39;;;-0.36;100.00
62948;BME280;51940;52.126;-0.994;2023-01-20T02:14:08;100343.02;;;-0.34;100.00
62948;BME280;51940;52.126;-0.994;2023-01-20T02:27:20;100361.42;;;-0.15;100.00
62948;BME280;51940;52.126;-0.994;2023-01-20T02:32:27;100367.59;;;-0.12;100.00
62948;BME280;51940;52.126;-0.994;2023-01-20T02:35:08;100375.31;;;-0.12;100.00
62948;BME280;51940;52.126;-0.994;2023-01-20T02:37:47;100374.61;;;-0.13;100.00
62948;BME280;51940;52.126;-0.994;2023-01-20T02:42:56;100381.70;;;-0.17;100.00
62948;BME280;51940;52.126;-0.994;2023-01-20T02:50:41;100383.59;;;-0.19;100.00
62948;BME280;51940;52.126;-0.994;2023-01-20T02:53:11;100386.56;;;-0.19;100.00
62948;BME280;51940;52.126;-0.994;2023-01-20T02:55:43;100384.27;;;-0.21;100.00
62948;BME280;51940;52.126;-0.994;2023-01-20T02:58:18;100389.15;;;-0.22;100.00
62948;BME280;51940;52.126;-0.994;2023-01-20T03:00:49;100386.70;;;-0.22;100.00
62948;BME280;51940;52.126;-0.994;2023-01-20T03:03:21;100385.65;;;-0.22;100.00
62948;BME280;51940;52.126;-0.994;2023-01-20T03:05:52;100388.98;;;-0.23;100.00
62948;BME280;51940;52.126;-0.994;2023-01-20T03:08:20;100386.17;;;-0.23;100.00
62948;BME280;51940;52.126;-0.994;2023-01-20T03:10:47;100389.65;;;-0.24;100.00
62948;BME280;51940;52.126;-0.994;2023-01-20T03:13:15;100392.79;;;-0.25;100.00
62948;BME280;51940;52.126;-0.994;2023-01-20T03:15:56;100391.56;;;-0.24;100.00
62948;BME280;51940;52.126;-0.994;2023-01-20T03:18:24;100396.77;;;-0.26;100.00
62948;BME280;51940;52.126;-0.994;2023-01-20T03:20:52;100394.98;;;-0.29;100.00
62948;BME280;51940;52.126;-0.994;2023-01-20T03:23:17;100398.80;;;-0.30;100.00
62948;BME280;51940;52.126;-0.994;2023-01-20T03:25:44;100398.13;;;-0.29;100.00
62948;BME280;51940;52.126;-0.994;2023-01-20T03:28:12;100399.54;;;-0.28;100.00
62948;BME280;51940;52.126;-0.994;2023-01-20T03:30:38;100398.30;;;-0.29;100.00
62948;BME280;51940;52.126;-0.994;2023-01-20T03:33:03;100401.61;;;-0.31;100.00
62948;BME280;51940;52.126;-0.994;2023-01-20T03:35:29;100404.75;;;-0.31;100.00
62948;BME280;51940;52.126;-0.994;2023-01-20T03:37:55;100402.98;;;-0.32;100.00
62948;BME280;51940;52.126;-0.994;2023-01-20T03:40:23;100407.47;;;-0.35;100.00
62948;BME280;51940;52.126;-0.994;2023-01-20T03:43:13;100408.45;;;-0.38;100.00
62948;BME280;51940;52.126;-0.994;2023-01-20T03:45:49;100408.93;;;-0.41;100.00
62948;BME280;51940;52.126;-0.994;2023-01-20T03:48:27;100407.09;;;-0.44;100.00
62948;BME280;51940;52.126;-0.994;2023-01-20T03:51:09;100404.39;;;-0.49;100.00
62948;BME280;51940;52.126;-0.994;2023-01-20T03:53:43;100411.29;;;-0.53;100.00
62948;BME280;51940;52.126;-0.994;2023-01-20T03:56:26;100412.80;;;-0.57;100.00
62948;BME280;51940;52.126;-0.994;2023-01-20T03:58:56;100420.08;;;-0.61;100.00
62948;BME280;51940;52.126;-0.994;2023-01-20T04:01:33;100423.02;;;-0.63;100.00
62948;BME280;51940;52.126;-0.994;2023-01-20T04:04:01;100426.14;;;-0.64;100.00
62948;BME280;51940;52.126;-0.994;2023-01-20T04:06:28;100429.45;;;-0.65;100.00
62948;BME280;51940;52.126;-0.994;2023-01-20T04:09:03;100432.62;;;-0.64;100.00
62948;BME280;51940;52.126;-0.994;2023-01-20T04:11:30;100432.80;;;-0.64;100.00
62948;BME280;51940;52.126;-0.994;2023-01-20T04:13:55;100430.54;;;-0.63;100.00
62948;BME280;51940;52.126;-0.994;2023-01-20T04:16:21;100428.29;;;-0.61;100.00
62948;BME280;51940;52.126;-0.994;2023-01-20T04:18:49;100433.73;;;-0.61;100.00
62948;BME280;51940;52.126;-0.994;2023-01-20T04:21:37;100430.73;;;-0.62;100.00
62948;BME280;51940;52.126;-0.994;2023-01-20T04:24:25;100432.77;;;-0.65;100.00
62948;BME280;51940;52.126;-0.994;2023-01-20T04:26:53;100432.70;;;-0.69;100.00
62948;BME280;51940;52.126;-0.994;2023-01-20T04:29:18;100430.52;;;-0.72;100.00
62948;BME280;51940;52.126;-0.994;2023-01-20T04:31:43;100436.05;;;-0.76;100.00
62948;BME280;51940;52.126;-0.994;2023-01-20T04:34:12;100431.79;;;-0.78;100.00
62948;BME280;51940;52.126;-0.994;2023-01-20T04:36:37;100437.15;;;-0.80;100.00
62948;BME280;51940;52.126;-0.994;2023-01-20T04:39:03;100443.08;;;-0.83;100.00
62948;BME280;51940;52.126;-0.994;2023-01-20T04:41:28;100439.14;;;-0.86;100.00
62948;BME280;51940;52.126;-0.994;2023-01-20T04:43:54;100445.55;;;-0.89;100.00
62948;BME280;51940;52.126;-0.994;2023-01-20T04:46:19;100446.52;;;-0.93;100.00
62948;BME280;51940;52.126;-0.994;2023-01-20T04:48:44;100443.63;;;-0.95;100.00
62948;BME280;51940;52.126;-0.994;2023-01-20T04:51:11;100447.11;;;-0.97;100.00
62948;BME280;51940;52.126;-0.994;2023-01-20T04:53:36;100444.29;;;-0.98;100.00
62948;BME280;51940;52.126;-0.994;2023-01-20T04:56:01;100452.15;;;-0.98;100.00
62948;BME280;51940;52.126;-0.994;2023-01-20T04:58:27;100458.09;;;-0.99;100.00
62948;BME280;51940;52.126;-0.994;2023-01-20T05:00:52;100457.44;;;-0.97;100.00
62948;BME280;51940;52.126;-0.994;2023-01-20T05:03:18;100456.86;;;-0.92;100.00
62948;BME280;51940;52.126;-0.994;2023-01-20T05:05:50;100458.22;;;-0.86;100.00
62948;BME280;51940;52.126;-0.994;2023-01-20T05:08:16;100457.61;;;-0.82;100.00
62948;BME280;51940;52.126;-0.994;2023-01-20T05:10:42;100459.77;;;-0.79;100.00
62948;BME280;51940;52.126;-0.994;2023-01-20T05:13:07;100457.60;;;-0.75;100.00
62948;BME280;51940;52.126;-0.994;2023-01-20T05:15:32;100458.91;;;-0.70;100.00
62948;BME280;51940;52.126;-0.994;2023-01-20T05:17:58;100460.90;;;-0.68;100.00
62948;BME280;51940;52.126;-0.994;2023-01-20T05:20:23;100472.33;;;-0.67;100.00
62948;BME280;51940;52.126;-0.994;2023-01-20T05:22:48;100472.73;;;-0.65;100.00
62948;BME280;51940;52.126;-0.994;2023-01-20T05:25:14;100474.52;;;-0.62;100.00
62948;BME280;51940;52.126;-0.994;2023-01-20T05:27:39;100475.73;;;-0.62;100.00
62948;BME280;51940;52.126;-0.994;2023-01-20T05:30:06;100470.48;;;-0.63;100.00
62948;BME280;51940;52.126;-0.994;2023-01-20T05:32:35;100471.14;;;-0.65;100.00
62948;BME280;51940;52.126;-0.994;2023-01-20T05:35:00;100473.73;;;-0.67;100.00
62948;BME280;51940;52.126;-0.994;2023-01-20T05:37:26;100477.72;;;-0.68;100.00
62948;BME280;51940;52.126;-0.994;2023-01-20T05:39:51;100473.63;;;-0.70;100.00
62948;BME280;51940;52.126;-0.994;2023-01-20T05:42:16;100470.67;;;-0.69;100.00
62948;BME280;51940;52.126;-0.994;2023-01-20T05:44:42;100468.58;;;-0.69;100.00
62948;BME280;51940;52.126;-0.994;2023-01-20T05:47:07;100468.54;;;-0.71;100.00
62948;BME280;51940;52.126;-0.994;2023-01-20T05:49:33;100470.27;;;-0.72;100.00
62948;BME280;51940;52.126;-0.994;2023-01-20T05:51:58;100474.14;;;-0.71;100.00
62948;BME280;51940;52.126;-0.994;2023-01-20T05:54:24;100481.17;;;-0.70;100.00
62948;BME280;51940;52.126;-0.994;2023-01-20T05:56:50;100485.98;;;-0.67;100.00
62948;BME280;51940;52.126;-0.994;2023-01-20T05:59:16;100487.23;;;-0.65;100.00
62948;BME280;51940;52.126;-0.994;2023-01-20T06:01:41;100499.19;;;-0.63;100.00
62948;BME280;51940;52.126;-0.994;2023-01-20T06:04:07;100501.46;;;-0.63;100.00
62948;BME280;51940;52.126;-0.994;2023-01-20T06:06:32;100502.83;;;-0.65;100.00
62948;BME280;51940;52.126;-0.994;2023-01-20T06:08:57;100505.77;;;-0.67;100.00
62948;BME280;51940;52.126;-0.994;2023-01-20T06:11:23;100513.60;;;-0.69;100.00
62948;BME280;51940;52.126;-0.994;2023-01-20T06:13:49;100518.30;;;-0.70;100.00
62948;BME280;51940;52.126;-0.994;2023-01-20T06:16:16;100520.56;;;-0.71;100.00
62948;BME280;51940;52.126;-0.994;2023-01-20T06:18:42;100524.57;;;-0.72;100.00
62948;BME280;51940;52.126;-0.994;2023-01-20T06:21:07;100529.80;;;-0.73;100.00
62948;BME280;51940;52.126;-0.994;2023-01-20T06:23:33;100527.30;;;-0.75;100.00
62948;BME280;51940;52.126;-0.994;2023-01-20T06:26:04;100532.31;;;-0.77;100.00
62948;BME280;51940;52.126;-0.994;2023-01-20T06:28:30;100539.27;;;-0.79;100.00
62948;BME280;51940;52.126;-0.994;2023-01-20T06:31:11;100542.23;;;-0.79;100.00
62948;BME280;51940;52.126;-0.994;2023-01-20T06:33:37;100548.13;;;-0.82;100.00
62948;BME280;51940;52.126;-0.994;2023-01-20T06:36:04;100552.58;;;-0.86;100.00
62948;BME280;51940;52.126;-0.994;2023-01-20T06:38:32;100560.02;;;-0.89;100.00
62948;BME280;51940;52.126;-0.994;2023-01-20T06:41:06;100563.26;;;-0.93;100.00
62948;BME280;51940;52.126;-0.994;2023-01-20T06:43:33;100571.06;;;-0.96;100.00
62948;BME280;51940;52.126;-0.994;2023-01-20T06:46:03;100572.74;;;-0.99;100.00
62948;BME280;51940;52.126;-0.994;2023-01-20T06:48:30;100576.69;;;-1.03;100.00
62948;BME280;51940;52.126;-0.994;2023-01-20T06:51:03;100575.55;;;-1.06;100.00
62948;BME280;51940;52.126;-0.994;2023-01-20T06:53:29;100580.38;;;-1.09;100.00
62948;BME280;51940;52.126;-0.994;2023-01-20T06:55:56;100586.63;;;-1.11;100.00
62948;BME280;51940;52.126;-0.994;2023-01-20T06:58:23;100586.72;;;-1.14;100.00
62948;BME280;51940;52.126;-0.994;2023-01-20T07:00:49;100588.06;;;-1.16;100.00
62948;BME280;51940;52.126;-0.994;2023-01-20T07:03:15;100588.16;;;-1.19;100.00
62948;BME280;51940;52.126;-0.994;2023-01-20T07:05:40;100589.30;;;-1.22;100.00
62948;BME280;51940;52.126;-0.994;2023-01-20T07:08:06;100592.92;;;-1.24;100.00
62948;BME280;51940;52.126;-0.994;2023-01-20T07:10:31;100596.38;;;-1.26;100.00
62948;BME280;51940;52.126;-0.994;2023-01-20T07:12:57;100600.13;;;-1.29;100.00
62948;BME280;51940;52.126;-0.994;2023-01-20T07:15:22;100601.84;;;-1.31;100.00
62948;BME280;51940;52.126;-0.994;2023-01-20T07:17:47;100601.64;;;-1.32;100.00
62948;BME280;51940;52.126;-0.994;2023-01-20T07:20:13;100606.67;;;-1.33;100.00
62948;BME280;51940;52.126;-0.994;2023-01-20T07:22:38;100607.83;;;-1.36;100.00
62948;BME280;51940;52.126;-0.994;2023-01-20T07:25:04;100617.03;;;-1.38;100.00
62948;BME280;51940;52.126;-0.994;2023-01-20T07:27:29;100630.46;;;-1.39;100.00
62948;BME280;51940;52.126;-0.994;2023-01-20T07:29:55;100633.21;;;-1.42;100.00
62948;BME280;51940;52.126;-0.994;2023-01-20T07:32:20;100640.33;;;-1.44;100.00
62948;BME280;51940;52.126;-0.994;2023-01-20T07:34:46;100644.08;;;-1.47;100.00
62948;BME280;51940;52.126;-0.994;2023-01-20T07:37:11;100646.80;;;-1.50;100.00
62948;BME280;51940;52.126;-0.994;2023-01-20T07:39:36;100648.29;;;-1.53;100.00
62948;BME280;51940;52.126;-0.994;2023-01-20T07:42:02;100660.08;;;-1.56;100.00
62948;BME280;51940;52.126;-0.994;2023-01-20T07:44:27;100665.04;;;-1.54;100.00
62948;BME280;51940;52.126;-0.994;2023-01-20T07:46:53;100668.79;;;-1.52;100.00
62948;BME280;51940;52.126;-0.994;2023-01-20T07:49:18;100668.70;;;-1.48;100.00
62948;BME280;51940;52.126;-0.994;2023-01-20T07:51:44;100673.05;;;-1.43;100.00
62948;BME280;51940;52.126;-0.994;2023-01-20T07:54:10;100675.64;;;-1.38;100.00
62948;BME280;51940;52.126;-0.994;2023-01-20T07:56:36;100679.15;;;-1.32;100.00
62948;BME280;51940;52.126;-0.994;2023-01-20T07:59:01;100681.40;;;-1.26;100.00
62948;BME280;51940;52.126;-0.994;2023-01-20T08:01:28;100686.05;;;-1.23;100.00
62948;BME280;51940;52.126;-0.994;2023-01-20T08:03:55;100686.90;;;-1.18;100.00
62948;BME280;51940;52.126;-0.994;2023-01-20T08:06:23;100695.84;;;-1.10;100.00
62948;BME280;51940;52.126;-0.994;2023-01-20T08:08:49;100700.20;;;-1.04;100.00
62948;BME280;51940;52.126;-0.994;2023-01-20T08:11:16;100706.01;;;-0.97;100.00
62948;BME280;51940;52.126;-0.994;2023-01-20T08:13:42;100713.94;;;-0.89;100.00
62948;BME280;51940;52.126;-0.994;2023-01-20T08:16:10;100718.86;;;-0.82;100.00
62948;BME280;51940;52.126;-0.994;2023-01-20T08:18:36;100723.39;;;-0.76;100.00
62948;BME280;51940;52.126;-0.994;2023-01-20T08:21:03;100725.81;;;-0.71;100.00
62948;BME280;51940;52.126;-0.994;2023-01-20T08:23:32;100731.73;;;-0.65;100.00
62948;BME280;51940;52.126;-0.994;2023-01-20T08:25:59;100731.09;;;-0.63;100.00
62948;BME280;51940;52.126;-0.994;2023-01-20T08:28:26;100736.20;;;-0.62;100.00
62948;BME280;51940;52.126;-0.994;2023-01-20T08:30:52;100741.99;;;-0.61;100.00
62948;BME280;51940;52.126;-0.994;2023-01-20T08:33:17;100742.69;;;-0.62;100.00
62948;BME280;51940;52.126;-0.994;2023-01-20T08:35:43;100742.40;;;-0.60;100.00
62948;BME280;51940;52.126;-0.994;2023-01-20T08:38:09;100745.49;;;-0.55;100.00
62948;BME280;51940;52.126;-0.994;2023-01-20T08:40:34;100746.15;;;-0.50;100.00
62948;BME280;51940;52.126;-0.994;2023-01-20T08:43:00;100753.27;;;-0.46;100.00
62948;BME280;51940;52.126;-0.994;2023-01-20T08:45:26;100751.02;;;-0.45;100.00
62948;BME280;51940;52.126;-0.994;2023-01-20T08:47:51;100758.71;;;-0.45;100.00
62948;BME280;51940;52.126;-0.994;2023-01-20T08:50:17;100762.55;;;-0.45;100.00
62948;BME280;51940;52.126;-0.994;2023-01-20T08:52:42;100761.83;;;-0.46;100.00
62948;BME280;51940;52.126;-0.994;2023-01-20T08:55:08;100763.56;;;-0.47;100.00
62948;BME280;51940;52.126;-0.994;2023-01-20T08:57:34;100764.77;;;-0.48;100.00
62948;BME280;51940;52.126;-0.994;2023-01-20T09:00:00;100764.77;;;-0.48;100.00
62948;BME280;51940;52.126;-0.994;2023-01-20T09:02:25;100768.99;;;-0.47;100.00
62948;BME280;51940;52.126;-0.994;2023-01-20T09:04:51;100767.61;;;-0.47;100.00
62948;BME280;51940;52.126;-0.994;2023-01-20T09:07:18;100765.52;;;-0.46;100.00
62948;BME280;51940;52.126;-0.994;2023-01-20T09:09:44;100762.73;;;-0.46;100.00
62948;BME280;51940;52.126;-0.994;2023-01-20T09:12:10;100764.86;;;-0.45;100.00
62948;BME280;51940;52.126;-0.994;2023-01-20T09:14:35;100769.34;;;-0.41;100.00
62948;BME280;51940;52.126;-0.994;2023-01-20T09:17:01;100771.19;;;-0.37;100.00
62948;BME280;51940;52.126;-0.994;2023-01-20T09:19:30;100778.52;;;-0.32;100.00
62948;BME280;51940;52.126;-0.994;2023-01-20T09:21:55;100779.48;;;-0.21;100.00
62948;BME280;51940;52.126;-0.994;2023-01-20T09:24:21;100784.59;;;-0.07;100.00
62948;BME280;51940;52.126;-0.994;2023-01-20T09:26:48;100789.17;;;0.09;100.00
62948;BME280;51940;52.126;-0.994;2023-01-20T09:29:18;100791.74;;;0.21;100.00
62948;BME280;51940;52.126;-0.994;2023-01-20T09:31:49;100794.10;;;0.30;100.00
62948;BME280;51940;52.126;-0.994;2023-01-20T09:34:16;100794.64;;;0.39;100.00
62948;BME280;51940;52.126;-0.994;2023-01-20T09:36:50;100796.33;;;0.43;100.00
62948;BME280;51940;52.126;-0.994;2023-01-20T09:39:16;100797.45;;;0.46;100.00
62948;BME280;51940;52.126;-0.994;2023-01-20T09:45:26;100805.52;;;0.54;100.00
62948;BME280;51940;52.126;-0.994;2023-01-20T09:48:06;100807.14;;;0.55;100.00
62948;BME280;51940;52.126;-0.994;2023-01-20T09:50:57;100805.23;;;0.57;100.00
62948;BME280;51940;52.126;-0.994;2023-01-20T09:53:51;100810.02;;;0.59;100.00
62948;BME280;51940;52.126;-0.994;2023-01-20T09:56:23;100813.43;;;0.62;100.00
62948;BME280;51940;52.126;-0.994;2023-01-20T09:59:05;100816.70;;;0.67;100.00
62948;BME280;51940;52.126;-0.994;2023-01-20T10:01:38;100818.52;;;0.78;100.00
62948;BME280;51940;52.126;-0.994;2023-01-20T10:07:12;100831.46;;;0.92;100.00
62948;BME280;51940;52.126;-0.994;2023-01-20T10:09:48;100836.45;;;0.94;100.00
62948;BME280;51940;52.126;-0.994;2023-01-20T10:15:11;100841.39;;;0.95;100.00
62948;BME280;51940;52.126;-0.994;2023-01-20T10:17:53;100840.70;;;0.96;100.00
62948;BME280;51940;52.126;-0.994;2023-01-20T10:20:21;100844.45;;;0.99;100.00
62948;BME280;51940;52.126;-0.994;2023-01-20T10:22:54;100844.23;;;1.04;100.00
62948;BME280;51940;52.126;-0.994;2023-01-20T10:28:26;100852.48;;;1.21;100.00
62948;BME280;51940;52.126;-0.994;2023-01-20T10:30:57;100853.37;;;1.30;100.00
62948;BME280;51940;52.126;-0.994;2023-01-20T10:33:37;100852.44;;;1.36;100.00
62948;BME280;51940;52.126;-0.994;2023-01-20T10:36:03;100855.77;;;1.44;100.00
62948;BME280;51940;52.126;-0.994;2023-01-20T10:38:39;100856.64;;;1.52;100.00
62948;BME280;51940;52.126;-0.994;2023-01-20T10:43:32;100862.16;;;1.75;100.00
62948;BME280;51940;52.126;-0.994;2023-01-20T10:57:12;100865.35;;;2.23;100.00
62948;BME280;51940;52.126;-0.994;2023-01-20T10:59:44;100866.66;;;2.30;100.00
62948;BME280;51940;52.126;-0.994;2023-01-20T11:02:18;100866.23;;;2.34;100.00
62948;BME280;51940;52.126;-0.994;2023-01-20T11:04:50;100862.44;;;2.40;100.00
62948;BME280;51940;52.126;-0.994;2023-01-20T11:07:17;100863.77;;;2.45;100.00
62948;BME280;51940;52.126;-0.994;2023-01-20T11:09:45;100868.97;;;2.50;100.00
62948;BME280;51940;52.126;-0.994;2023-01-20T11:12:15;100873.44;;;2.55;100.00
62948;BME280;51940;52.126;-0.994;2023-01-20T11:14:42;100877.39;;;2.60;100.00
62948;BME280;51940;52.126;-0.994;2023-01-20T11:17:16;100875.85;;;2.63;100.00
62948;BME280;51940;52.126;-0.994;2023-01-20T11:19:47;100875.04;;;2.67;100.00
62948;BME280;51940;52.126;-0.994;2023-01-20T11:22:15;100877.55;;;2.72;100.00
62948;BME280;51940;52.126;-0.994;2023-01-20T11:24:45;100873.42;;;2.75;100.00
62948;BME280;51940;52.126;-0.994;2023-01-20T11:27:20;100868.69;;;2.77;100.00
62948;BME280;51940;52.126;-0.994;2023-01-20T11:29:54;100867.67;;;2.81;100.00
62948;BME280;51940;52.126;-0.994;2023-01-20T11:32:37;100871.30;;;2.88;100.00
62948;BME280;51940;52.126;-0.994;2023-01-20T11:35:31;100875.09;;;2.94;100.00
62948;BME280;51940;52.126;-0.994;2023-01-20T11:37:57;100873.63;;;3.02;100.00
62948;BME280;51940;52.126;-0.994;2023-01-20T11:40:24;100877.98;;;3.10;100.00
62948;BME280;51940;52.126;-0.994;2023-01-20T11:42:51;100880.00;;;3.17;100.00
62948;BME280;51940;52.126;-0.994;2023-01-20T11:45:32;100883.78;;;3.23;100.00
62948;BME280;51940;52.126;-0.994;2023-01-20T11:50:50;100883.92;;;3.32;100.00
62948;BME280;51940;52.126;-0.994;2023-01-20T11:53:22;100880.80;;;3.38;100.00
62948;BME280;51940;52.126;-0.994;2023-01-20T11:58:24;100881.80;;;3.48;100.00
62948;BME280;51940;52.126;-0.994;2023-01-20T12:00:58;100882.05;;;3.52;100.00
62948;BME280;51940;52.126;-0.994;2023-01-20T12:05:56;100884.58;;;3.57;100.00
62948;BME280;51940;52.126;-0.994;2023-01-20T12:08:33;100888.69;;;3.61;100.00
62948;BME280;51940;52.126;-0.994;2023-01-20T12:11:06;100893.83;;;3.64;100.00
62948;BME280;51940;52.126;-0.994;2023-01-20T12:13:38;100890.30;;;3.64;100.00
62948;BME280;51940;52.126;-0.994;2023-01-20T12:16:27;100892.41;;;3.64;100.00
62948;BME280;51940;52.126;-0.994;2023-01-20T12:18:58;100891.52;;;3.63;100.00
62948;BME280;51940;52.126;-0.994;2023-01-20T12:21:38;100896.46;;;3.62;100.00
62948;BME280;51940;52.126;-0.994;2023-01-20T12:24:20;100895.38;;;3.60;100.00
62948;BME280;51940;52.126;-0.994;2023-01-20T12:26:47;100896.27;;;3.59;100.00
62948;BME280;51940;52.126;-0.994;2023-01-20T12:29:35;100894.28;;;3.59;100.00
62948;BME280;51940;52.126;-0.994;2023-01-20T12:32:09;100890.09;;;3.60;100.00
62948;BME280;51940;52.126;-0.994;2023-01-20T12:34:35;100889.05;;;3.61;100.00
62948;BME280;51940;52.126;-0.994;2023-01-20T12:39:41;100884.81;;;3.62;100.00
62948;BME280;51940;52.126;-0.994;2023-01-20T12:48:16;100891.00;;;3.63;100.00
62948;BME280;51940;52.126;-0.994;2023-01-20T12:50:56;100891.70;;;3.64;100.00
62948;BME280;51940;52.126;-0.994;2023-01-20T12:59:08;100892.98;;;3.67;100.00
62948;BME280;51940;52.126;-0.994;2023-01-20T13:02:08;100894.05;;;3.67;100.00
62948;BME280;51940;52.126;-0.994;2023-01-20T13:16:30;100894.83;;;3.74;100.00
62948;BME280;51940;52.126;-0.994;2023-01-20T13:21:32;100896.81;;;3.77;100.00
62948;BME280;51940;52.126;-0.994;2023-01-20T13:24:03;100896.48;;;3.79;100.00
62948;BME280;51940;52.126;-0.994;2023-01-20T13:26:31;100899.14;;;3.81;100.00
62948;BME280;51940;52.126;-0.994;2023-01-20T13:28:57;100899.87;;;3.84;100.00
62948;BME280;51940;52.126;-0.994;2023-01-20T13:31:50;100899.58;;;3.86;100.00
62948;BME280;51940;52.126;-0.994;2023-01-20T13:39:50;100909.14;;;3.91;100.00
62948;BME280;51940;52.126;-0.994;2023-01-20T13:50:32;100908.65;;;3.93;100.00
62948;BME280;51940;52.126;-0.994;2023-01-20T13:53:22;100911.80;;;3.92;100.00
62948;BME280;51940;52.126;-0.994;2023-01-20T13:55:51;100918.51;;;3.93;100.00
62948;BME280;51940;52.126;-0.994;2023-01-20T13:58:33;100918.33;;;3.92;100.00
62948;BME280;51940;52.126;-0.994;2023-01-20T14:01:03;100923.42;;;3.92;100.00
62948;BME280;51940;52.126;-0.994;2023-01-20T14:03:31;100924.31;;;3.91;100.00
62948;BME280;51940;52.126;-0.994;2023-01-20T14:06:03;100920.95;;;3.90;100.00
62948;BME280;51940;52.126;-0.994;2023-01-20T14:08:36;100925.19;;;3.90;100.00
62948;BME280;51940;52.126;-0.994;2023-01-20T14:13:32;100934.54;;;3.90;100.00
62948;BME280;51940;52.126;-0.994;2023-01-20T14:15:57;100938.24;;;3.90;100.00
62948;BME280;51940;52.126;-0.994;2023-01-20T14:18:24;100942.30;;;3.91;100.00
62948;BME280;51940;52.126;-0.994;2023-01-20T14:21:00;100944.78;;;3.91;100.00
62948;BME280;51940;52.126;-0.994;2023-01-20T14:23:29;100944.77;;;3.90;100.00